createdAt,value
2023-04-25T00:01:52.367Z,101217.06
2023-04-25T00:04:19.319Z,101205.47
2023-04-25T00:06:46.341Z,101204.78
2023-04-25T00:09:12.853Z,101201.09
2023-04-25T00:11:39.440Z,101208.47
2023-04-25T00:14:06.030Z,101202.25
2023-04-25T00:16:34.911Z,101208.75
2023-04-25T00:19:03.288Z,101211.72
2023-04-25T00:21:30.134Z,101214.72
2023-04-25T00:23:57.045Z,101216.97
2023-04-25T00:26:23.784Z,101218.25
2023-04-25T00:28:50.457Z,101219.97
2023-04-25T00:31:17.107Z,101223.22
2023-04-25T00:33:43.717Z,101227.28
2023-04-25T00:36:10.677Z,101225.84
2023-04-25T00:38:37.747Z,101224.56
2023-04-25T00:41:05.361Z,101223.28
2023-04-25T00:43:33.814Z,101221.16
2023-04-25T00:46:01.683Z,101220.84
2023-04-25T00:48:28.534Z,101224.38
2023-04-25T00:50:57.616Z,101226.06
2023-04-25T00:53:25.621Z,101224.38
2023-04-25T00:55:52.585Z,101220.84
2023-04-25T00:58:20.826Z,101224.66
2023-04-25T01:00:48.756Z,101215.06
2023-04-25T01:03:21.418Z,101233.16
2023-04-25T01:05:49.107Z,101229.94
2023-04-25T01:08:15.883Z,101231.22
2023-04-25T01:10:43.559Z,101223.72
2023-04-25T01:13:10.333Z,101227.88
2023-04-25T01:15:37.101Z,101227.59
2023-04-25T01:18:06.444Z,101227.47
2023-04-25T01:20:34.062Z,101225.50
2023-04-25T01:23:01.486Z,101227.94
2023-04-25T01:25:28.019Z,101231.34
2023-04-25T01:27:54.648Z,101241.78
2023-04-25T01:30:21.269Z,101241.38
2023-04-25T01:32:49.130Z,101245.59
2023-04-25T01:35:15.942Z,101245.31
2023-04-25T01:37:44.014Z,101245.88
2023-04-25T01:40:12.520Z,101249.09
2023-04-25T01:42:41.658Z,101248.00
2023-04-25T01:45:09.860Z,101245.72
2023-04-25T01:47:36.470Z,101250.63
2023-04-25T01:50:08.389Z,101255.59
2023-04-25T01:52:35.188Z,101254.16
2023-04-25T01:55:03.141Z,101261.78
2023-04-25T01:57:29.649Z,101264.72
2023-04-25T02:00:04.378Z,101274.72
2023-04-25T02:02:31.151Z,101265.41
2023-04-25T02:04:57.767Z,101270.09
2023-04-25T02:07:24.307Z,101265.59
2023-04-25T02:09:50.919Z,101271.53
2023-04-25T02:12:17.446Z,101273.25
2023-04-25T02:14:44.078Z,101267.78
2023-04-25T02:17:11.037Z,101271.28
2023-04-25T02:19:37.712Z,101270.44
2023-04-25T02:22:04.291Z,101276.06
2023-04-25T02:24:30.965Z,101275.63
2023-04-25T02:26:57.482Z,101269.00
2023-04-25T02:29:24.364Z,101263.50
2023-04-25T02:31:51.314Z,101270.41
2023-04-25T02:34:17.955Z,101263.19
2023-04-25T02:36:44.515Z,101267.72
2023-04-25T02:39:11.712Z,101274.06
2023-04-25T02:41:38.364Z,101273.22
2023-04-25T02:44:04.971Z,101276.19
2023-04-25T02:46:39.090Z,101275.63
2023-04-25T02:49:06.734Z,101278.75
2023-04-25T02:51:33.550Z,101275.66
2023-04-25T02:54:00.374Z,101278.91
2023-04-25T02:56:27.804Z,101275.81
2023-04-25T02:58:54.684Z,101283.44
2023-04-25T03:01:21.414Z,101275.94
2023-04-25T03:03:48.136Z,101282.69
2023-04-25T03:06:15.764Z,101288.59
2023-04-25T03:08:42.335Z,101289.19
2023-04-25T03:11:08.911Z,101322.59
2023-04-25T03:13:35.548Z,101322.19
2023-04-25T03:16:02.231Z,101325.25
2023-04-25T03:18:28.888Z,101315.09
2023-04-25T03:20:55.472Z,101309.16
2023-04-25T03:23:22.207Z,101309.69
2023-04-25T03:25:48.757Z,101300.41
2023-04-25T03:28:15.590Z,101298.97
2023-04-25T03:30:42.157Z,101297.41
2023-04-25T03:33:08.676Z,101295.97
2023-04-25T03:35:35.211Z,101296.28
2023-04-25T03:38:01.747Z,101292.88
2023-04-25T03:40:28.281Z,101301.06
2023-04-25T03:42:54.982Z,101298.38
2023-04-25T03:45:21.535Z,101300.31
2023-04-25T03:47:48.097Z,101301.31
2023-04-25T03:50:14.712Z,101302.91
2023-04-25T03:52:41.325Z,101296.84
2023-04-25T03:55:08.279Z,101301.38
2023-04-25T03:57:34.836Z,101308.31
2023-04-25T04:00:01.442Z,101320.75
2023-04-25T04:02:28.159Z,101324.28
2023-04-25T04:04:54.941Z,101329.69
2023-04-25T04:07:21.703Z,101328.00
2023-04-25T04:09:48.257Z,101333.66
2023-04-25T04:12:14.757Z,101333.22
2023-04-25T04:14:41.562Z,101331.00
2023-04-25T04:17:08.161Z,101335.22
2023-04-25T04:19:34.721Z,101341.28
2023-04-25T04:22:01.291Z,101345.66
2023-04-25T04:24:27.807Z,101352.03
2023-04-25T04:26:54.383Z,101360.19
2023-04-25T04:29:24.037Z,101360.50
2023-04-25T04:31:51.979Z,101361.63
2023-04-25T04:34:19.414Z,101363.88
2023-04-25T04:36:47.234Z,101357.09
2023-04-25T04:39:14.585Z,101350.41
2023-04-25T04:41:41.475Z,101358.88
2023-04-25T04:44:09.901Z,101344.19
2023-04-25T04:46:38.852Z,101351.81
2023-04-25T04:49:18.359Z,101366.75
2023-04-25T04:51:48.026Z,101369.69
2023-04-25T04:54:14.687Z,101361.22
2023-04-25T04:56:41.291Z,101373.22
2023-04-25T04:59:08.588Z,101368.13
2023-04-25T05:01:38.320Z,101375.72
2023-04-25T05:04:05.210Z,101383.28
2023-04-25T05:06:32.193Z,101387.22
2023-04-25T05:08:59.011Z,101394.72
2023-04-25T05:11:28.775Z,101394.13
2023-04-25T05:13:55.440Z,101381.97
2023-04-25T05:16:22.034Z,101392.97
2023-04-25T05:18:49.025Z,101395.91
2023-04-25T05:21:15.610Z,101395.19
2023-04-25T05:23:42.110Z,101399.81
2023-04-25T05:26:14.637Z,101391.09
2023-04-25T05:28:42.673Z,101398.13
2023-04-25T05:31:11.337Z,101398.13
2023-04-25T05:33:37.908Z,101403.50
2023-04-25T05:36:04.725Z,101410.41
2023-04-25T05:38:33.239Z,101410.41
2023-04-25T05:41:01.410Z,101410.28
2023-04-25T05:43:27.898Z,101420.72
2023-04-25T05:45:54.523Z,101418.91
2023-04-25T05:48:21.154Z,101420.44
2023-04-25T05:50:47.671Z,101430.19
2023-04-25T05:53:14.204Z,101425.53
2023-04-25T05:55:40.751Z,101431.63
2023-04-25T05:58:08.092Z,101425.41
2023-04-25T06:00:34.791Z,101424.28
2023-04-25T06:03:04.562Z,101438.41
2023-04-25T06:05:31.613Z,101446.31
2023-04-25T06:07:58.343Z,101443.63
2023-04-25T06:10:24.875Z,101443.63
2023-04-25T06:12:51.417Z,101446.16
2023-04-25T06:15:28.096Z,101451.50
2023-04-25T06:17:56.086Z,101457.34
2023-04-25T06:20:24.969Z,101454.38
2023-04-25T06:22:52.790Z,101461.03
2023-04-25T06:25:19.451Z,101459.78
2023-04-25T06:27:46.014Z,101469.13
2023-04-25T06:30:16.185Z,101467.88
2023-04-25T06:32:42.862Z,101469.28
2023-04-25T06:35:09.851Z,101467.06
2023-04-25T06:37:36.402Z,101476.53
2023-04-25T06:40:03.450Z,101480.50
2023-04-25T06:42:29.968Z,101478.41
2023-04-25T06:44:56.823Z,101478.97
2023-04-25T06:47:23.360Z,101482.38
2023-04-25T06:49:50.547Z,101491.84
2023-04-25T06:52:19.039Z,101492.69
2023-04-25T06:54:46.207Z,101489.06
2023-04-25T06:57:12.778Z,101492.59
2023-04-25T06:59:39.335Z,101492.59
2023-04-25T07:02:07.039Z,101496.97
2023-04-25T07:04:33.860Z,101497.09
2023-04-25T07:07:01.971Z,101493.59
2023-04-25T07:09:28.525Z,101498.94
2023-04-25T07:11:55.063Z,101502.59
2023-04-25T07:14:21.613Z,101512.63
2023-04-25T07:16:48.286Z,101516.41
2023-04-25T07:19:15.044Z,101514.81
2023-04-25T07:21:41.584Z,101524.97
2023-04-25T07:24:08.156Z,101516.47
2023-04-25T07:26:34.670Z,101523.81
2023-04-25T07:29:01.440Z,101521.38
2023-04-25T07:31:28.027Z,101528.72
2023-04-25T07:33:54.587Z,101525.16
2023-04-25T07:36:22.007Z,101532.38
2023-04-25T07:38:48.658Z,101525.31
2023-04-25T07:41:15.301Z,101530.81
2023-04-25T07:43:41.809Z,101535.19
2023-04-25T07:46:08.450Z,101537.72
2023-04-25T07:48:35.021Z,101538.47
2023-04-25T07:51:01.676Z,101544.66
2023-04-25T07:53:28.238Z,101540.88
2023-04-25T07:55:54.787Z,101550.59
2023-04-25T07:58:22.925Z,101552.31
2023-04-25T08:00:49.823Z,101553.03
2023-04-25T08:03:16.631Z,101550.34
2023-04-25T08:05:43.794Z,101549.34
2023-04-25T08:08:10.641Z,101552.75
2023-04-25T08:10:37.202Z,101562.50
2023-04-25T08:13:03.996Z,101561.50
2023-04-25T08:15:30.774Z,101565.03
2023-04-25T08:17:57.417Z,101558.56
2023-04-25T08:20:24.081Z,101566.63
2023-04-25T08:22:50.682Z,101575.38
2023-04-25T08:25:17.248Z,101570.88
2023-04-25T08:27:44.320Z,101585.84
2023-04-25T08:30:11.201Z,101591.22
2023-04-25T08:32:40.915Z,101584.75
2023-04-25T08:35:07.873Z,101580.22
2023-04-25T08:37:34.489Z,101588.97
2023-04-25T08:40:01.184Z,101589.72
2023-04-25T08:42:29.917Z,101591.25
2023-04-25T08:44:57.269Z,101588.44
2023-04-25T08:47:24.557Z,101594.50
2023-04-25T08:49:54.328Z,101604.25
2023-04-25T08:52:28.730Z,101611.19
2023-04-25T08:54:56.404Z,101621.91
2023-04-25T08:57:23.601Z,101628.13
2023-04-25T08:59:50.401Z,101621.22
2023-04-25T09:02:19.041Z,101631.66
2023-04-25T09:04:46.310Z,101629.84
2023-04-25T09:07:13.269Z,101637.59
2023-04-25T09:09:40.427Z,101635.50
2023-04-25T09:12:07.228Z,101631.72
2023-04-25T09:14:33.774Z,101637.66
2023-04-25T09:17:02.426Z,101638.25
2023-04-25T09:19:40.232Z,101647.00
2023-04-25T09:22:09.116Z,101652.09
2023-04-25T09:24:39.843Z,101657.22
2023-04-25T09:27:08.035Z,101666.94
2023-04-25T09:29:37.228Z,101659.59
2023-04-25T09:32:17.085Z,101655.94
2023-04-25T09:34:51.882Z,101680.81
2023-04-25T09:37:21.422Z,101694.22
2023-04-25T09:39:53.545Z,101689.84
2023-04-25T09:42:24.792Z,101699.84
2023-04-25T09:44:54.388Z,101693.91
2023-04-25T09:47:23.500Z,101692.34
2023-04-25T09:49:50.948Z,101697.97
2023-04-25T09:52:24.541Z,101697.41
2023-04-25T09:54:52.820Z,101698.38
2023-04-25T09:57:23.816Z,101705.69
2023-04-25T09:59:55.121Z,101706.69
2023-04-25T10:02:24.032Z,101710.22
2023-04-25T10:04:53.974Z,101720.00
2023-04-25T10:07:22.383Z,101719.00
2023-04-25T10:09:53.090Z,101715.31
2023-04-25T10:12:20.957Z,101715.06
2023-04-25T10:14:48.618Z,101711.41
2023-04-25T10:17:15.239Z,101720.03
2023-04-25T10:19:42.000Z,101713.56
2023-04-25T10:22:21.141Z,101720.34
2023-04-25T10:24:48.309Z,101710.06
2023-04-25T10:27:15.541Z,101715.16
2023-04-25T10:29:44.299Z,101720.97
2023-04-25T10:32:14.064Z,101709.97
2023-04-25T10:34:41.744Z,101714.94
2023-04-25T10:37:12.263Z,101713.41
2023-04-25T10:39:43.759Z,101708.47
2023-04-25T10:42:10.364Z,101715.97
2023-04-25T10:44:39.099Z,101719.25
2023-04-25T10:47:08.568Z,101716.31
2023-04-25T10:49:42.944Z,101719.84
2023-04-25T10:52:17.597Z,101733.16
2023-04-25T10:54:54.452Z,101726.78
2023-04-25T10:57:49.624Z,101731.91
2023-04-25T11:00:19.713Z,101724.28
2023-04-25T11:03:00.043Z,101724.84
2023-04-25T11:05:41.075Z,101725.44
2023-04-25T11:08:17.308Z,101730.22
2023-04-25T11:10:43.888Z,101728.97
2023-04-25T11:13:10.431Z,101727.69
2023-04-25T11:15:38.043Z,101737.19
2023-04-25T11:18:04.746Z,101730.53
2023-04-25T11:20:31.778Z,101726.59
2023-04-25T11:25:35.558Z,101725.06
2023-04-25T11:28:05.111Z,101724.91
2023-04-25T11:30:31.946Z,101738.34
2023-04-25T11:32:58.737Z,101743.72
2023-04-25T11:35:26.754Z,101739.47
2023-04-25T11:37:53.673Z,101763.69
2023-04-25T11:40:20.449Z,101761.94
2023-04-25T11:42:48.218Z,101750.50
2023-04-25T11:45:15.609Z,101764.09
2023-04-25T11:47:42.410Z,101766.91
2023-04-25T11:50:09.600Z,101771.59
2023-04-25T11:52:40.666Z,101772.53
2023-04-25T11:55:11.133Z,101779.91
2023-04-25T11:57:42.773Z,101772.97
2023-04-25T12:00:21.197Z,101786.56
2023-04-25T12:02:49.335Z,101780.44
2023-04-25T12:05:31.244Z,101777.06
2023-04-25T12:08:10.172Z,101779.03
2023-04-25T12:10:38.848Z,101779.75
2023-04-25T12:13:22.816Z,101776.06
2023-04-25T12:15:49.915Z,101777.50
2023-04-25T12:18:20.758Z,101783.28
2023-04-25T12:20:47.346Z,101779.75
2023-04-25T12:23:13.872Z,101792.34
2023-04-25T12:25:42.897Z,101782.59
2023-04-25T12:28:20.628Z,101784.44
2023-04-25T12:31:00.731Z,101781.75
2023-04-25T12:33:29.733Z,101783.59
2023-04-25T12:35:57.176Z,101780.50
2023-04-25T12:38:31.346Z,101787.72
2023-04-25T12:41:01.410Z,101790.38
2023-04-25T12:43:28.071Z,101790.38
2023-04-25T12:45:56.201Z,101785.59
2023-04-25T12:48:23.649Z,101791.41
2023-04-25T12:50:52.704Z,101790.97
2023-04-25T12:53:23.993Z,101788.13
2023-04-25T12:55:50.535Z,101795.81
2023-04-25T12:58:18.594Z,101792.97
2023-04-25T13:00:46.093Z,101797.22
2023-04-25T13:03:13.601Z,101798.91
2023-04-25T13:05:40.866Z,101795.09
2023-04-25T13:08:07.527Z,101798.66
2023-04-25T13:10:35.093Z,101796.81
2023-04-25T13:13:02.282Z,101800.34
2023-04-25T13:15:29.133Z,101800.34
2023-04-25T13:17:56.785Z,101787.91
2023-04-25T13:20:23.648Z,101801.47
2023-04-25T13:22:50.236Z,101798.91
2023-04-25T13:25:17.476Z,101801.72
2023-04-25T13:27:45.320Z,101799.19
2023-04-25T13:30:12.484Z,101799.34
2023-04-25T13:32:39.570Z,101801.19
2023-04-25T13:35:12.575Z,101802.16
2023-04-25T13:37:39.714Z,101804.84
2023-04-25T13:40:12.239Z,101804.16
2023-04-25T13:42:39.491Z,101814.06
2023-04-25T13:45:06.728Z,101817.69
2023-04-25T13:47:36.021Z,101817.84
2023-04-25T13:50:04.165Z,101814.31
2023-04-25T13:52:30.979Z,101816.44
2023-04-25T13:54:57.507Z,101810.06
2023-04-25T13:57:24.317Z,101815.44
2023-04-25T13:59:51.621Z,101810.22
2023-04-25T14:02:18.344Z,101819.97
2023-04-25T14:04:45.023Z,101817.28
2023-04-25T14:07:12.047Z,101829.03
2023-04-25T14:09:38.645Z,101825.50
2023-04-25T14:12:05.368Z,101841.63
2023-04-25T14:14:31.907Z,101839.03
2023-04-25T14:16:58.583Z,101842.88
2023-04-25T14:19:25.614Z,101840.47
2023-04-25T14:21:52.206Z,101836.06
2023-04-25T14:24:18.780Z,101828.13
2023-04-25T14:26:45.562Z,101838.03
2023-04-25T14:29:14.612Z,101833.50
2023-04-25T14:31:41.946Z,101836.19
2023-04-25T14:34:08.990Z,101830.81
2023-04-25T14:36:36.819Z,101827.16
2023-04-25T14:39:06.091Z,101828.00
2023-04-25T14:41:32.863Z,101840.47
2023-04-25T14:43:59.414Z,101838.75
2023-04-25T14:46:26.733Z,101847.69
2023-04-25T14:48:53.742Z,101842.41
2023-04-25T14:51:20.327Z,101841.72
2023-04-25T14:53:46.894Z,101842.72
2023-04-25T14:56:13.635Z,101846.50
2023-04-25T14:58:41.363Z,101842.25
2023-04-25T15:01:08.149Z,101844.22
2023-04-25T15:03:35.294Z,101843.38
2023-04-25T15:06:02.002Z,101846.91
2023-04-25T15:08:28.495Z,101847.91
2023-04-25T15:10:55.066Z,101857.66
2023-04-25T15:13:22.049Z,101860.50
2023-04-25T15:15:54.459Z,101867.84
2023-04-25T15:18:24.745Z,101860.03
2023-04-25T15:20:52.693Z,101865.56
2023-04-25T15:23:20.738Z,101860.28
2023-04-25T15:25:48.213Z,101865.13
2023-04-25T15:28:17.868Z,101864.38
2023-04-25T15:30:45.688Z,101867.22
2023-04-25T15:33:12.248Z,101876.13
2023-04-25T15:35:38.819Z,101879.66
2023-04-25T15:38:05.901Z,101885.88
2023-04-25T15:40:32.528Z,101893.09
2023-04-25T15:42:59.616Z,101885.19
2023-04-25T15:45:26.746Z,101890.66
2023-04-25T15:47:55.781Z,101891.81
2023-04-25T15:50:22.971Z,101900.81
2023-04-25T15:52:50.593Z,101887.69
2023-04-25T15:55:18.427Z,101891.31
2023-04-25T15:57:44.988Z,101891.47
2023-04-25T16:00:13.202Z,101880.00
2023-04-25T16:02:41.013Z,101883.66
2023-04-25T16:05:09.027Z,101885.38
2023-04-25T16:07:36.280Z,101884.41
2023-04-25T16:10:03.406Z,101876.19
2023-04-25T16:12:31.148Z,101888.53
2023-04-25T16:14:58.238Z,101884.00
2023-04-25T16:17:25.866Z,101892.75
2023-04-25T16:19:52.433Z,101891.81
2023-04-25T16:22:19.097Z,101901.56
2023-04-25T16:24:45.660Z,101894.34
2023-04-25T16:27:12.297Z,101896.19
2023-04-25T16:29:39.303Z,101905.09
2023-04-25T16:32:06.223Z,101894.19
2023-04-25T16:34:32.805Z,101892.50
2023-04-25T16:36:59.905Z,101903.25
2023-04-25T16:39:26.489Z,101899.84
2023-04-25T16:41:53.469Z,101900.81
2023-04-25T16:44:19.988Z,101904.50
2023-04-25T16:46:46.563Z,101901.81
2023-04-25T16:49:13.188Z,101899.13
2023-04-25T16:51:39.801Z,101893.91
2023-04-25T16:54:06.460Z,101892.06
2023-04-25T16:56:33.007Z,101906.47
2023-04-25T16:58:59.582Z,101900.22
2023-04-25T17:01:26.369Z,101908.44
2023-04-25T17:03:53.163Z,101911.13
2023-04-25T17:06:19.861Z,101911.25
2023-04-25T17:08:46.456Z,101911.38
2023-04-25T17:11:13.154Z,101916.88
2023-04-25T17:13:39.974Z,101915.28
2023-04-25T17:16:07.473Z,101916.25
2023-04-25T17:18:34.084Z,101919.09
2023-04-25T17:21:00.712Z,101932.78
2023-04-25T17:23:27.314Z,101937.31
2023-04-25T17:25:53.832Z,101943.91
2023-04-25T17:28:20.393Z,101934.53
2023-04-25T17:30:47.009Z,101933.94
2023-04-25T17:33:13.711Z,101929.69
2023-04-25T17:35:40.675Z,101940.69
2023-04-25T17:38:07.356Z,101944.47
2023-04-25T17:40:33.877Z,101944.59
2023-04-25T17:43:00.405Z,101944.00
2023-04-25T17:45:28.571Z,101939.88
2023-04-25T17:47:55.166Z,101946.00
2023-04-25T17:50:21.694Z,101953.75
2023-04-25T17:52:48.659Z,101956.19
2023-04-25T17:55:15.373Z,101969.38
2023-04-25T17:57:41.886Z,101970.06
2023-04-25T18:00:09.357Z,101968.25
2023-04-25T18:02:36.707Z,101967.28
2023-04-25T18:05:09.131Z,101967.13
2023-04-25T18:07:36.366Z,101967.97
2023-04-25T18:10:05.962Z,101972.13
2023-04-25T18:12:34.039Z,101965.78
2023-04-25T18:15:01.791Z,101970.16
2023-04-25T18:17:28.590Z,101971.72
2023-04-25T18:19:55.470Z,101966.25
2023-04-25T18:22:22.370Z,101969.63
2023-04-25T18:24:50.789Z,101973.06
2023-04-25T18:27:17.419Z,101969.28
2023-04-25T18:29:45.416Z,101978.03
2023-04-25T18:32:12.551Z,101977.88
2023-04-25T18:34:42.074Z,101983.19
2023-04-25T18:37:08.830Z,101982.19
2023-04-25T18:39:35.353Z,101979.38
2023-04-25T18:42:06.706Z,101980.25
2023-04-25T18:44:36.594Z,101985.47
2023-04-25T18:47:03.258Z,101990.84
2023-04-25T18:49:31.318Z,101989.00
2023-04-25T18:51:58.058Z,101990.84
2023-04-25T18:54:24.719Z,101988.16
2023-04-25T18:56:51.743Z,101989.16
2023-04-25T18:59:18.640Z,101994.38
2023-04-25T19:01:45.753Z,101981.94
2023-04-25T19:04:12.446Z,101988.16
2023-04-25T19:06:39.137Z,101992.69
2023-04-25T19:09:05.757Z,101991.94
2023-04-25T19:11:32.287Z,101998.31
2023-04-25T19:13:59.242Z,102002.81
2023-04-25T19:16:27.404Z,102008.06
2023-04-25T19:18:55.392Z,102006.09
2023-04-25T19:21:22.560Z,102012.19
2023-04-25T19:23:49.234Z,102012.06
2023-04-25T19:26:16.407Z,102011.94
2023-04-25T19:28:44.904Z,102013.78
2023-04-25T19:31:13.053Z,102018.03
2023-04-25T19:33:39.643Z,102022.44
2023-04-25T19:36:06.211Z,102017.91
2023-04-25T19:38:32.750Z,102017.75
2023-04-25T19:40:59.298Z,102018.59
2023-04-25T19:43:26.150Z,102019.50
2023-04-25T19:45:52.861Z,102029.34
2023-04-25T19:48:19.931Z,102032.03
2023-04-25T19:50:46.493Z,102023.03
2023-04-25T19:53:13.008Z,102033.78
2023-04-25T19:55:39.613Z,102032.91
2023-04-25T19:58:06.918Z,102029.25
2023-04-25T20:00:33.477Z,102029.25
2023-04-25T20:03:00.063Z,102023.88
2023-04-25T20:05:27.420Z,102036.31
2023-04-25T20:07:53.981Z,102030.78
2023-04-25T20:10:20.711Z,102031.69
2023-04-25T20:12:47.296Z,102032.63
2023-04-25T20:15:13.869Z,102033.47
2023-04-25T20:17:42.339Z,102028.09
2023-04-25T20:20:10.829Z,102037.16
2023-04-25T20:22:40.048Z,102037.16
2023-04-25T20:25:08.746Z,102031.94
2023-04-25T20:27:37.837Z,102038.28
2023-04-25T20:30:08.418Z,102035.84
2023-04-25T20:32:36.356Z,102036.84
2023-04-25T20:35:09.025Z,102037.94
2023-04-25T20:37:36.280Z,102035.41
2023-04-25T20:40:06.322Z,102042.00
2023-04-25T20:42:32.901Z,102042.25
2023-04-25T20:44:59.432Z,102039.78
2023-04-25T20:47:26.210Z,102048.09
2023-04-25T20:49:53.011Z,102043.13
2023-04-25T20:52:19.530Z,102041.66
2023-04-25T20:54:50.558Z,102040.09
2023-04-25T20:57:17.538Z,102030.56
2023-04-25T20:59:44.782Z,102030.84
2023-04-25T21:02:12.720Z,102034.63
2023-04-25T21:04:39.474Z,102028.81
2023-04-25T21:07:06.313Z,102029.91
2023-04-25T21:09:32.867Z,102033.81
2023-04-25T21:11:59.444Z,102034.06
2023-04-25T21:14:26.157Z,102024.56
2023-04-25T21:16:52.748Z,102027.53
2023-04-25T21:19:19.276Z,102026.91
2023-04-25T21:21:45.885Z,102032.53
2023-04-25T21:24:14.397Z,102028.25
2023-04-25T21:26:40.959Z,102031.31
2023-04-25T21:29:07.538Z,102032.53
2023-04-25T21:31:34.638Z,102030.97
2023-04-25T21:34:01.215Z,102032.91
2023-04-25T21:36:27.844Z,102035.84
2023-04-25T21:38:54.647Z,102030.00
2023-04-25T21:41:22.539Z,102031.84
2023-04-25T21:43:49.119Z,102033.91
2023-04-25T21:46:23.297Z,102035.75
2023-04-25T21:48:51.641Z,102037.81
2023-04-25T21:51:18.706Z,102040.84
2023-04-25T21:53:45.282Z,102041.19
2023-04-25T21:56:12.422Z,102046.94
2023-04-25T21:58:38.921Z,102046.41
2023-04-25T22:01:05.462Z,102045.91
2023-04-25T22:03:32.617Z,102049.22
2023-04-25T22:05:59.284Z,102046.25
2023-04-25T22:08:25.954Z,102053.34
2023-04-25T22:10:55.089Z,102054.19
2023-04-25T22:13:22.696Z,102051.38
2023-04-25T22:15:49.327Z,102058.44
2023-04-25T22:18:16.332Z,102054.81
2023-04-25T22:20:44.337Z,102057.47
2023-04-25T22:23:12.173Z,102055.66
2023-04-25T22:25:38.814Z,102057.47
2023-04-25T22:28:05.388Z,102058.34
2023-04-25T22:30:32.637Z,102065.66
2023-04-25T22:32:59.317Z,102067.63
2023-04-25T22:35:26.159Z,102061.50
2023-04-25T22:37:53.013Z,102058.97
2023-04-25T22:40:19.615Z,102056.41
2023-04-25T22:42:46.197Z,102058.22
2023-04-25T22:45:12.931Z,102058.22
2023-04-25T22:47:40.346Z,102070.06
2023-04-25T22:50:12.379Z,102068.47
2023-04-25T22:52:39.815Z,102073.25
2023-04-25T22:55:06.920Z,102069.97
2023-04-25T22:57:33.673Z,102069.25
2023-04-25T23:00:00.240Z,102073.16
2023-04-25T23:02:27.395Z,102076.06
2023-04-25T23:04:54.951Z,102076.81
2023-04-25T23:07:21.619Z,102078.28
2023-04-25T23:09:48.131Z,102075.31
2023-04-25T23:12:18.053Z,102078.50
2023-04-25T23:14:48.790Z,102073.63
2023-04-25T23:17:15.275Z,102073.22
2023-04-25T23:19:41.849Z,102069.47
2023-04-25T23:22:08.674Z,102076.38
2023-04-25T23:24:41.562Z,102070.91
2023-04-25T23:27:08.110Z,102067.25
2023-04-25T23:29:34.785Z,102071.63
2023-04-25T23:32:04.532Z,102068.94
2023-04-25T23:34:31.879Z,102072.59
2023-04-25T23:37:04.456Z,102072.59
2023-04-25T23:39:31.051Z,102076.28
2023-04-25T23:41:57.780Z,102070.06
2023-04-25T23:44:24.404Z,102065.78
2023-04-25T23:46:51.282Z,102069.56
2023-04-25T23:49:17.854Z,102061.78
2023-04-25T23:51:44.416Z,102065.56
2023-04-25T23:54:11.159Z,102066.66
2023-04-25T23:56:37.787Z,102058.72
2023-04-25T23:59:04.869Z,102059.81
